Aérodrome :
LOGIN :

S'inscrire | Disclaimer

   EN    FR    IT 

 










Légende :    VFR   VFR Marginal   IFR   IFR Intensif   IFR Très Intensif
Visi : 
Plafond : 
>= 8 km
>= 3000ft
5 à 8 km
1000 à 3000 ft
1500m à 5 km
500 à 1000 ft
800 à 1500m
200 à 500 ft
< 800m
< 200 ft
Symboles :   Orages  Brouillard  Fortes neiges  Fortes précipitations  Vent > 20 kt
SIGMETs :   Divers  Orages  Givrage  Turbulence  Onde Orograph.  Cendres Volcan.







- Altitude de l'aérodrome : 699 ft
- Code IATA : PAD


EDLP - Paderborn Lippstadt

DERNIER METAR :
  • 260450Z 21012KT 9999 SCT035 06/M00 Q1011

METARs EXPIRÉS :
  • 260420Z 21011KT 9999 BKN040 06/M00 Q1011
  • 260350Z 21012KT 9999 BKN040 06/M00 Q1012
  • 260320Z 20012KT 9999 BKN040 06/M00 Q1012
  • 260250Z 21011KT 9999 SCT038 06/M00 Q1012
  • 260220Z 21013KT 9999 SCT037 06/M01 Q1012

TAF TAF EDLP
Valide du 26 à 00h jusqu'au 27 à 00h UTC


252300Z 2600/2624 21013KT CAVOK
TEMPO 2600/2617 21015G25KT
Pas de NOTAMs connus pour ce terrain.



MET'MAP, la Météo Aéronautique d'un coup d'oeil ! - Copyright ORBIFLY Décembre 2007 - Disclaimer

ORBIFLY MET'MAP TEAM :

Programmation & Développement : Alexandra Zaïnal
Conception & Développement : Baudouin d'Aumeries
Co-Programmation & Développement : Marc-Olivier Méhu
Soutien technique & logistique : Manuel Goepfert

Contact : metmap@orbifly.com




SOURCES & CREDITS :

   NOAA